Time;durP1;ratioP1;P1;durP2;ratioP2;P2;SDS_P1;SDS_P2;PMS_P1;PMS_P2;Temp;Humidity;BMP_temperature;BMP_pressure;BME280_temperature;BME280_humidity;BME280_pressure;Samples;Min_cycle;Max_cycle;Signal;HPM_P1;HPM_P2
2022/06/28 00:01:58;;;;;;;4.97;2.90;;;;;;;23.43;100.00;98942.13;4432877;32;20077;-69
2022/06/28 00:04:27;;;;;;;6.82;2.87;;;;;;;23.28;100.00;98915.25;4433071;32;20045;-69
2022/06/28 00:06:54;;;;;;;4.22;2.70;;;;;;;23.20;100.00;98903.25;4416294;32;20031;-69
2022/06/28 00:09:23;;;;;;;4.30;2.47;;;;;;;23.18;100.00;98906.31;4431216;32;20069;-69
2022/06/28 00:11:52;;;;;;;6.32;2.60;;;;;;;23.45;100.00;98942.56;4431392;32;20072;-72
2022/06/28 00:17:05;;;;;;;3.15;2.67;;;;;;;23.31;100.00;98925.59;4433030;32;20081;-69
2022/06/28 00:19:31;;;;;;;5.50;2.35;;;;;;;23.37;100.00;98935.22;4432874;32;20034;-69
2022/06/28 00:21:57;;;;;;;4.57;3.20;;;;;;;23.10;100.00;98904.44;4432622;32;20060;-69
2022/06/28 00:24:25;;;;;;;4.15;2.65;;;;;;;23.32;100.00;98932.69;4417198;32;20041;-71
2022/06/28 00:26:51;;;;;;;5.90;3.37;;;;;;;23.24;100.00;98925.34;4424847;32;20046;-70
2022/06/28 00:29:18;;;;;;;3.05;2.65;;;;;;;23.25;100.00;98924.19;4423214;32;20739;-70
2022/06/28 00:31:45;;;;;;;12.60;2.75;;;;;;;23.26;100.00;98934.03;4431733;32;20177;-70
2022/06/28 00:34:11;;;;;;;7.90;3.12;;;;;;;23.25;100.00;98932.41;4432718;32;20043;-70
2022/06/28 00:36:38;;;;;;;6.43;2.75;;;;;;;23.02;100.00;98897.06;4427572;32;20035;-70
2022/06/28 00:39:06;;;;;;;9.05;2.47;;;;;;;23.24;100.00;98937.12;4403848;32;20096;-70
2022/06/28 00:41:32;;;;;;;6.03;3.10;;;;;;;23.16;100.00;98933.31;4423351;32;20050;-73
2022/06/28 00:43:59;;;;;;;7.82;2.58;;;;;;;22.91;100.00;98884.88;4431591;32;20389;-70
2022/06/28 00:46:26;;;;;;;7.62;2.70;;;;;;;23.19;100.00;98929.88;4432317;32;20058;-70
2022/06/28 00:48:52;;;;;;;11.45;2.42;;;;;;;23.13;100.00;98933.97;4430916;32;20123;-70
2022/06/28 00:51:19;;;;;;;7.15;3.08;;;;;;;22.95;100.00;98921.50;4432432;32;20039;-70
2022/06/28 00:53:46;;;;;;;7.70;3.40;;;;;;;22.94;100.00;98933.63;4431966;32;20054;-69
2022/06/28 00:56:12;;;;;;;4.72;2.90;;;;;;;22.84;100.00;98930.12;4431371;32;20411;-68
2022/06/28 00:58:39;;;;;;;2.70;2.50;;;;;;;22.58;100.00;98883.66;4431374;32;20064;-68
2022/06/28 01:01:06;;;;;;;9.82;3.15;;;;;;;22.75;100.00;98921.16;4430753;32;20064;-71
2022/06/28 01:03:32;;;;;;;4.18;3.28;;;;;;;22.63;100.00;98912.84;4431404;32;20035;-69
2022/06/28 01:05:58;;;;;;;9.80;3.90;;;;;;;22.59;100.00;98917.38;4432092;32;20038;-69
2022/06/28 01:08:25;;;;;;;9.43;3.12;;;;;;;22.53;100.00;98921.44;4431937;32;20057;-69
2022/06/28 01:10:58;;;;;;;4.95;2.67;;;;;;;22.16;100.00;98891.78;4431632;32;20042;-68
2022/06/28 01:13:26;;;;;;;3.25;2.92;;;;;;;22.38;100.00;98928.31;4431648;32;20047;-69
2022/06/28 01:15:53;;;;;;;22.13;3.55;;;;;;;22.36;100.00;98919.63;4422338;32;20035;-69
2022/06/28 01:18:20;;;;;;;6.35;2.97;;;;;;;22.20;100.00;98886.44;4401137;32;20063;-72
2022/06/28 01:20:48;;;;;;;5.57;3.70;;;;;;;22.00;100.00;98869.59;4420484;32;20070;-69
2022/06/28 01:23:17;;;;;;;3.65;3.00;;;;;;;22.23;100.00;98916.75;4431581;32;20108;-68
2022/06/28 01:25:44;;;;;;;4.22;2.65;;;;;;;21.97;100.00;98881.25;4431997;32;20371;-69
2022/06/28 01:28:15;;;;;;;7.57;3.03;;;;;;;22.21;100.00;98912.72;4431663;32;20387;-68
2022/06/28 01:30:42;;;;;;;3.55;3.25;;;;;;;22.12;100.00;98910.81;4431550;32;20034;-68
2022/06/28 01:33:09;;;;;;;3.42;3.03;;;;;;;22.20;100.00;98911.91;4430425;32;20039;-71
2022/06/28 01:35:36;;;;;;;5.97;3.00;;;;;;;22.21;100.00;98909.97;4430892;32;20071;-69
2022/06/28 01:38:06;;;;;;;3.85;2.70;;;;;;;22.14;100.00;98903.06;4431465;32;20821;-69
2022/06/28 01:40:33;;;;;;;2.80;2.60;;;;;;;22.18;100.00;98916.13;4431921;32;20417;-69
2022/06/28 01:43:01;;;;;;;3.22;2.70;;;;;;;22.18;100.00;98925.16;4430953;32;20053;-69
2022/06/28 01:45:30;;;;;;;9.25;3.80;;;;;;;22.13;100.00;98928.91;4431483;32;20056;-69
2022/06/28 01:47:57;;;;;;;7.25;2.95;;;;;;;22.10;100.00;98924.06;4430335;32;20038;-71
2022/06/28 01:50:26;;;;;;;7.32;3.08;;;;;;;21.89;100.00;98901.25;4431384;32;20038;-69
2022/06/28 01:52:53;;;;;;;5.35;2.62;;;;;;;21.91;100.00;98894.31;4431132;32;20043;-68
2022/06/28 01:55:20;;;;;;;5.35;3.05;;;;;;;21.89;100.00;98891.09;4430471;32;20034;-68
2022/06/28 01:57:47;;;;;;;8.65;3.20;;;;;;;22.13;100.00;98934.37;4415402;32;20055;-69
2022/06/28 02:00:15;;;;;;;3.33;2.65;;;;;;;22.21;100.00;98929.16;4416451;32;20404;-70
2022/06/28 02:02:42;;;;;;;4.20;3.00;;;;;;;21.76;100.00;98859.22;4415845;32;20431;-69
2022/06/28 02:05:10;;;;;;;13.07;3.30;;;;;;;22.10;100.00;98932.28;4414495;32;20592;-71
2022/06/28 02:07:45;;;;;;;14.70;3.12;;;;;;;22.09;100.00;98927.94;4417603;32;20060;-70
2022/06/28 02:10:12;;;;;;;4.00;3.17;;;;;;;21.84;100.00;98890.47;4431161;32;20064;-70
2022/06/28 02:12:39;;;;;;;5.22;2.53;;;;;;;21.82;100.00;98882.56;4430699;32;20102;-69
2022/06/28 02:15:06;;;;;;;2.80;2.60;;;;;;;21.88;100.00;98891.44;4417478;32;20074;-69
2022/06/28 02:17:33;;;;;;;4.93;2.83;;;;;;;22.07;100.00;98919.25;4431238;32;20405;-69
2022/06/28 02:20:00;;;;;;;3.62;3.10;;;;;;;21.99;100.00;98917.34;4431349;32;20085;-71
2022/06/28 02:22:26;;;;;;;8.70;3.03;;;;;;;22.01;100.00;98915.06;4430233;32;20414;-71
2022/06/28 02:24:53;;;;;;;6.43;2.67;;;;;;;22.02;100.00;98905.72;4431285;32;20062;-69
2022/06/28 02:27:20;;;;;;;10.65;3.37;;;;;;;22.02;100.00;98911.22;4431278;32;21344;-69
2022/06/28 02:29:47;;;;;;;13.20;3.37;;;;;;;21.89;100.00;98901.25;4431038;32;20096;-69
2022/06/28 02:32:14;;;;;;;3.37;2.45;;;;;;;22.03;100.00;98918.28;4430350;32;20046;-69
2022/06/28 02:40:24;;;;;;;3.35;2.97;;;;;;;21.97;100.00;98919.63;4431375;32;20081;-69
2022/06/28 02:42:57;;;;;;;8.05;2.97;;;;;;;21.94;100.00;98914.78;4430432;32;20057;-69
2022/06/28 02:45:26;;;;;;;3.80;3.08;;;;;;;21.96;100.00;98920.75;4430465;32;20427;-71
2022/06/28 02:47:53;;;;;;;3.42;3.12;;;;;;;21.97;100.00;98925.09;4433032;32;20046;-70
2022/06/28 02:50:20;;;;;;;8.30;2.58;;;;;;;21.99;100.00;98928.31;4434650;32;20051;-69
2022/06/28 02:52:48;;;;;;;4.65;2.80;;;;;;;22.06;100.00;98922.31;4434251;32;20080;-70
2022/06/28 02:55:15;;;;;;;3.50;2.72;;;;;;;21.87;100.00;98884.34;4433965;32;20060;-69
2022/06/28 02:57:42;;;;;;;5.75;3.40;;;;;;;22.03;100.00;98931.97;4433491;32;20037;-69
2022/06/28 03:00:14;;;;;;;10.50;3.35;;;;;;;22.08;100.00;98937.31;4433729;32;20031;-69
2022/06/28 03:02:43;;;;;;;4.10;3.10;;;;;;;22.08;100.00;98937.31;4432515;32;20042;-71
2022/06/28 03:05:14;;;;;;;14.25;3.10;;;;;;;21.90;100.00;98908.34;4434273;32;20056;-70
2022/06/28 03:07:41;;;;;;;14.05;3.33;;;;;;;22.07;100.00;98932.94;4433845;32;20089;-70
2022/06/28 03:10:10;;;;;;;7.95;3.92;;;;;;;21.96;100.00;98904.28;4433957;32;20038;-69
2022/06/28 03:12:37;;;;;;;9.15;2.90;;;;;;;21.91;100.00;98901.75;4433039;32;20105;-70
2022/06/28 03:15:04;;;;;;;9.98;3.55;;;;;;;22.12;100.00;98938.25;4433919;32;20030;-70
2022/06/28 03:17:32;;;;;;;6.75;2.95;;;;;;;22.09;100.00;98927.94;4433289;32;20037;-71
2022/06/28 03:19:59;;;;;;;8.50;3.80;;;;;;;22.08;100.00;98931.81;4432271;32;20034;-70
2022/06/28 03:22:26;;;;;;;24.85;3.40;;;;;;;21.93;100.00;98907.69;4433524;32;20195;-70
2022/06/28 03:24:53;;;;;;;4.60;3.00;;;;;;;21.87;100.00;98901.56;4433561;32;20057;-69
2022/06/28 03:27:19;;;;;;;3.60;3.25;;;;;;;22.10;100.00;98940.53;4426584;32;20063;-68
2022/06/28 03:29:46;;;;;;;8.07;3.12;;;;;;;22.10;100.00;98951.47;4433219;32;20064;-68
2022/06/28 03:32:16;;;;;;;6.90;3.08;;;;;;;22.13;100.00;98939.88;4433670;32;20070;-68
2022/06/28 03:34:43;;;;;;;5.40;3.20;;;;;;;22.05;100.00;98932.47;4432576;32;20038;-69
2022/06/28 03:37:10;;;;;;;8.45;4.55;;;;;;;22.14;100.00;98949.69;4431987;32;20405;-70
2022/06/28 03:39:39;;;;;;;9.80;3.25;;;;;;;21.87;100.00;98903.50;4433363;32;20049;-68
2022/06/28 03:42:05;;;;;;;7.40;3.08;;;;;;;22.16;100.00;98926.63;4433002;32;20401;-68
2022/06/28 03:44:32;;;;;;;5.35;3.53;;;;;;;22.07;100.00;98913.75;4433255;32;20060;-68
2022/06/28 03:46:59;;;;;;;4.55;3.30;;;;;;;22.12;100.00;98931.97;4433068;32;20053;-68
2022/06/28 03:49:27;;;;;;;5.10;3.30;;;;;;;21.92;100.00;98889.63;4433376;32;20078;-67
2022/06/28 03:51:53;;;;;;;5.18;3.20;;;;;;;22.11;100.00;98933.91;4430581;32;20060;-69
2022/06/28 03:54:21;;;;;;;14.15;3.75;;;;;;;22.13;100.00;98926.16;4433021;32;20042;-67
2022/06/28 03:56:55;;;;;;;4.55;3.83;;;;;;;21.90;100.00;98897.38;4432793;32;20427;-67
2022/06/28 03:59:22;;;;;;;4.60;3.30;;;;;;;22.10;100.00;98924.06;4431822;32;20063;-67
2022/06/28 04:01:48;;;;;;;6.55;4.25;;;;;;;22.08;100.00;98904.41;4432862;32;20042;-68
2022/06/28 04:04:15;;;;;;;7.03;2.58;;;;;;;22.17;100.00;98920.00;4419203;32;20038;-68
2022/06/28 04:06:44;;;;;;;10.07;3.67;;;;;;;22.16;100.00;98916.44;4417814;32;20042;-69
2022/06/28 04:09:10;;;;;;;11.90;3.53;;;;;;;21.91;100.00;98882.56;4416399;32;20393;-68
2022/06/28 04:11:37;;;;;;;9.73;3.70;;;;;;;22.14;100.00;98919.53;4417317;32;20078;-68
2022/06/28 04:14:04;;;;;;;6.60;3.83;;;;;;;22.19;100.00;98920.47;4415958;32;20058;-67
2022/06/28 04:16:32;;;;;;;7.72;3.58;;;;;;;22.21;100.00;98910.81;4419704;32;20041;-67
2022/06/28 04:18:59;;;;;;;6.72;3.50;;;;;;;22.01;100.00;98876.69;4425352;32;20080;-68
2022/06/28 04:21:26;;;;;;;7.47;3.85;;;;;;;22.38;100.00;98923.63;4432814;32;20392;-67
2022/06/28 04:23:53;;;;;;;3.72;3.40;;;;;;;22.26;100.00;98883.19;4431741;32;20160;-69
2022/06/28 04:26:20;;;;;;;11.68;4.10;;;;;;;22.54;100.00;98920.31;4430993;32;20042;-67
2022/06/28 04:28:47;;;;;;;5.40;3.30;;;;;;;22.36;100.00;98871.06;4432526;32;20731;-68
2022/06/28 04:31:21;;;;;;;8.63;3.62;;;;;;;22.61;100.00;98909.66;4432346;32;20030;-68
2022/06/28 04:33:47;;;;;;;11.30;4.53;;;;;;;22.62;100.00;98905.75;4430848;32;20042;-68
2022/06/28 04:36:14;;;;;;;9.18;4.15;;;;;;;22.55;100.00;98900.78;4432563;32;20042;-66
2022/06/28 04:38:42;;;;;;;4.05;3.65;;;;;;;22.59;100.00;98903.66;4432462;32;20034;-66
2022/06/28 04:41:08;;;;;;;15.15;4.35;;;;;;;22.63;100.00;98897.19;4431192;32;20087;-70
2022/06/28 04:43:36;;;;;;;6.95;3.90;;;;;;;22.63;100.00;98890.91;4429571;32;20091;-69
2022/06/28 04:46:03;;;;;;;3.87;3.40;;;;;;;22.65;100.00;98894.09;4430678;32;20900;-68
2022/06/28 04:48:30;;;;;;;3.92;3.50;;;;;;;22.75;100.00;98906.62;4432099;32;20150;-68
2022/06/28 04:51:10;;;;;;;10.75;4.05;;;;;;;22.76;100.00;98900.81;4432272;32;20042;-68
2022/06/28 04:53:40;;;;;;;13.48;4.20;;;;;;;22.57;100.00;98882.06;4432174;32;20043;-70
2022/06/28 04:56:07;;;;;;;3.70;3.40;;;;;;;22.73;100.00;98901.47;4430573;32;20124;-69
2022/06/28 04:58:35;;;;;;;8.10;3.95;;;;;;;22.76;100.00;98895.31;4430434;32;20030;-68
2022/06/28 05:01:02;;;;;;;6.72;4.22;;;;;;;22.71;100.00;98897.47;4432617;32;20049;-67
2022/06/28 05:03:29;;;;;;;17.02;4.47;;;;;;;22.67;100.00;98891.81;4418183;32;20042;-68
2022/06/28 05:05:58;;;;;;;9.02;3.60;;;;;;;22.45;100.00;98858.09;4428919;32;20035;-68
2022/06/28 05:08:25;;;;;;;12.48;4.82;;;;;;;22.48;100.00;98884.88;4431931;32;20038;-68
2022/06/28 05:10:52;;;;;;;14.10;4.40;;;;;;;22.31;100.00;98884.97;4430624;32;20034;-68
2022/06/28 05:13:26;;;;;;;18.52;4.53;;;;;;;21.85;100.00;98840.00;4417749;32;20418;-68
2022/06/28 05:15:52;;;;;;;15.85;3.50;;;;;;;21.89;100.00;98882.88;4432055;32;20038;-68
2022/06/28 05:18:19;;;;;;;8.95;3.92;;;;;;;21.51;100.00;98844.50;4431739;32;20067;-67
2022/06/28 05:20:45;;;;;;;10.82;3.95;;;;;;;21.39;100.00;98856.09;4431966;32;20441;-67
2022/06/28 05:23:12;;;;;;;9.73;4.05;;;;;;;21.65;100.00;98891.66;4431751;32;20050;-66
2022/06/28 05:25:40;;;;;;;9.18;3.92;;;;;;;21.77;100.00;98932.88;4431449;32;20080;-68
2022/06/28 05:28:06;;;;;;;9.23;4.07;;;;;;;21.64;100.00;98883.78;4417681;32;20060;-67
2022/06/28 05:30:33;;;;;;;15.27;4.35;;;;;;;22.21;100.00;98918.19;4430200;32;20046;-68
2022/06/28 05:33:01;;;;;;;7.70;3.65;;;;;;;22.42;100.00;98918.31;4431015;32;20043;-67
2022/06/28 05:35:27;;;;;;;5.05;4.10;;;;;;;22.40;100.00;98877.50;4431634;32;20050;-68
2022/06/28 05:37:54;;;;;;;20.75;6.43;;;;;;;22.56;100.00;98918.87;4431517;32;20071;-67
2022/06/28 05:40:21;;;;;;;7.45;4.57;;;;;;;22.46;100.00;98925.53;4431069;32;20080;-67
2022/06/28 05:42:47;;;;;;;16.05;4.80;;;;;;;22.12;100.00;98860.69;4430927;32;20042;-68
2022/06/28 05:45:14;;;;;;;11.32;5.05;;;;;;;22.35;100.00;98921.56;4430039;32;20050;-68
2022/06/28 05:47:40;;;;;;;12.15;6.12;;;;;;;21.89;100.00;98869.19;4430050;32;20071;-69
2022/06/28 05:50:07;;;;;;;12.65;5.32;;;;;;;22.28;100.00;98913.03;4428239;32;20042;-69
2022/06/28 05:52:34;;;;;;;11.50;5.55;;;;;;;22.23;100.00;98907.72;4431455;32;20732;-68
2022/06/28 05:55:00;;;;;;;16.27;4.90;;;;;;;22.26;100.00;98909.81;4430772;32;20050;-68
2022/06/28 05:57:27;;;;;;;13.40;4.87;;;;;;;22.26;100.00;98866.72;4426192;32;20098;-68
2022/06/28 05:59:54;;;;;;;7.40;4.65;;;;;;;22.45;100.00;98901.19;4414968;32;20050;-69
2022/06/28 06:02:20;;;;;;;15.98;5.00;;;;;;;22.55;100.00;98935.66;4430350;32;20445;-68
2022/06/28 06:04:48;;;;;;;15.18;4.78;;;;;;;22.55;100.00;98932.91;4419697;32;20072;-68
2022/06/28 06:07:15;;;;;;;24.08;5.68;;;;;;;22.29;100.00;98928.34;4414808;32;20105;-68
2022/06/28 06:09:42;;;;;;;11.35;4.70;;;;;;;22.53;100.00;98960.69;4415806;32;20068;-67
2022/06/28 06:12:09;;;;;;;20.67;5.87;;;;;;;22.30;100.00;98921.75;4415632;32;20055;-67
2022/06/28 06:14:35;;;;;;;6.22;5.05;;;;;;;22.42;100.00;98929.28;4414422;32;20054;-67
2022/06/28 06:17:02;;;;;;;23.70;5.50;;;;;;;22.71;100.00;98966.88;4415896;32;20030;-68
2022/06/28 06:19:29;;;;;;;10.68;5.32;;;;;;;22.57;100.00;98920.47;4414647;32;20038;-67
2022/06/28 06:21:55;;;;;;;10.55;5.43;;;;;;;22.69;100.00;98947.19;4427524;32;20390;-68
2022/06/28 06:24:22;;;;;;;16.67;6.25;;;;;;;22.58;100.00;98924.81;4429758;32;20052;-72
2022/06/28 06:26:50;;;;;;;12.15;6.05;;;;;;;22.87;100.00;98960.81;4430891;32;20083;-68
2022/06/28 06:29:17;;;;;;;13.62;5.40;;;;;;;22.93;100.00;98964.94;4430552;32;20473;-68
2022/06/28 06:31:44;;;;;;;14.25;5.70;;;;;;;22.93;100.00;98953.97;4431021;32;20072;-68
2022/06/28 06:34:20;;;;;;;11.50;5.05;;;;;;;22.97;100.00;98946.69;4431251;32;20042;-68
2022/06/28 06:36:46;;;;;;;11.82;5.35;;;;;;;23.30;100.00;98956.97;4431041;32;20185;-68
2022/06/28 06:39:14;;;;;;;9.88;6.00;;;;;;;23.44;100.00;98945.66;4415050;32;20396;-69
2022/06/28 06:41:41;;;;;;;19.50;5.28;;;;;;;23.43;100.00;98911.91;4419145;32;20043;-68
2022/06/28 06:44:07;;;;;;;22.65;5.50;;;;;;;23.77;100.00;98964.91;4419498;32;20188;-68
2022/06/28 06:46:36;;;;;;;20.88;5.65;;;;;;;23.96;100.00;98960.84;4424837;32;20046;-68
2022/06/28 06:49:02;;;;;;;20.27;5.00;;;;;;;23.87;100.00;98936.19;4430641;32;20383;-67
2022/06/28 06:51:30;;;;;;;10.57;5.32;;;;;;;24.20;100.00;98974.63;4416612;32;20065;-69
2022/06/28 06:53:58;;;;;;;17.00;6.15;;;;;;;24.26;100.00;98987.03;4431302;32;20322;-71
2022/06/28 06:56:25;;;;;;;10.70;6.55;;;;;;;24.16;100.00;98970.97;4415031;32;20042;-76
2022/06/28 06:58:51;;;;;;;9.15;5.65;;;;;;;23.96;100.00;98949.84;4416825;32;20103;-74
2022/06/28 07:01:18;;;;;;;12.05;5.20;;;;;;;23.83;100.00;98952.56;4428094;32;20123;-72
2022/06/28 07:03:45;;;;;;;21.02;6.25;;;;;;;24.07;100.00;98984.03;4431175;32;20363;-71
2022/06/28 07:06:13;;;;;;;9.77;5.28;;;;;;;24.07;100.00;98984.03;4431166;32;20034;-70
2022/06/28 07:08:40;;;;;;;6.60;5.45;;;;;;;23.97;100.00;98984.47;4431411;32;20452;-68
2022/06/28 07:11:12;;;;;;;15.57;5.72;;;;;;;24.02;100.00;98967.75;4430097;32;20060;-69
2022/06/28 07:13:39;;;;;;;10.05;6.05;;;;;;;24.12;100.00;98970.03;4430381;32;20348;-68
2022/06/28 07:16:06;;;;;;;9.13;5.90;;;;;;;24.27;100.00;98982.34;4429616;32;20033;-70
2022/06/28 07:18:33;;;;;;;13.85;6.68;;;;;;;24.18;100.00;98979.69;4429040;32;20431;-69
2022/06/28 07:21:00;;;;;;;13.07;6.55;;;;;;;24.14;100.00;98984.28;4425195;32;20054;-69
2022/06/28 07:23:27;;;;;;;17.52;7.12;;;;;;;24.14;100.00;98983.47;4416166;32;20051;-67
2022/06/28 07:25:54;;;;;;;17.85;7.37;;;;;;;24.13;100.00;98990.91;4415547;32;20038;-68
2022/06/28 07:28:21;;;;;;;12.37;7.43;;;;;;;23.99;100.00;98974.72;4426097;32;20435;-67
2022/06/28 07:33:26;;;;;;;11.00;6.78;;;;;;;24.08;100.00;98968.28;4439238;32;20508;-68
2022/06/28 07:35:54;;;;;;;9.57;5.40;;;;;;;24.12;100.00;98975.53;4428258;32;20497;-68
2022/06/28 07:38:20;;;;;;;6.95;6.28;;;;;;;23.43;100.00;98949.56;4428505;32;20402;-68
2022/06/28 07:40:51;;;;;;;14.47;5.47;;;;;;;23.56;100.00;98968.50;4428691;32;20340;-68
2022/06/28 07:43:21;;;;;;;7.65;5.55;;;;;;;23.53;100.00;98971.94;4428742;32;20060;-68
2022/06/28 07:45:47;;;;;;;16.58;5.60;;;;;;;23.46;100.00;98949.69;4413586;32;20031;-69
2022/06/28 07:48:17;;;;;;;15.25;6.50;;;;;;;23.49;100.00;98975.69;4411626;32;20034;-73
2022/06/28 07:53:28;;;;;;;13.02;6.50;;;;;;;23.71;100.00;98982.75;4425689;32;20091;-68
2022/06/28 07:56:01;;;;;;;14.00;7.43;;;;;;;24.01;100.00;98979.87;4427979;32;20509;-68
2022/06/28 07:58:30;;;;;;;9.88;6.20;;;;;;;24.16;100.00;98976.47;4426962;32;20068;-72
2022/06/28 08:00:57;;;;;;;9.00;6.78;;;;;;;24.05;100.00;98978.06;4426847;32;20042;-69
2022/06/28 08:03:25;;;;;;;13.73;6.22;;;;;;;23.82;100.00;98956.47;4428088;32;20054;-68
2022/06/28 08:05:51;;;;;;;10.07;6.40;;;;;;;23.96;100.00;98977.34;4424728;32;20120;-69
2022/06/28 08:08:19;;;;;;;10.50;6.75;;;;;;;23.93;100.00;98967.81;4419990;32;20030;-68
